Time;durP1;ratioP1;P1;durP2;ratioP2;P2;SDS_P1;SDS_P2;PMS_P1;PMS_P2;Temp;Humidity;BMP_temperature;BMP_pressure;BME280_temperature;BME280_humidity;BME280_pressure;Samples;Min_cycle;Max_cycle;Signal;HPM_P1;HPM_P2
2023/06/16 00:01:13;;;;;;;2.92;1.40;;;21.20;35.00;;;;;;2478899;55;20973;-76
2023/06/16 00:03:41;;;;;;;2.75;1.25;;;21.20;35.00;;;;;;2477785;55;21781;-75
2023/06/16 00:06:13;;;;;;;3.78;1.20;;;21.10;34.90;;;;;;2478529;55;21111;-75
2023/06/16 00:08:44;;;;;;;2.50;1.30;;;21.10;35.00;;;;;;2478144;55;21380;-75
2023/06/16 00:11:14;;;;;;;2.45;1.17;;;21.10;35.30;;;;;;2440737;56;21464;-76
2023/06/16 00:13:41;;;;;;;3.03;1.15;;;21.00;35.30;;;;;;2251459;56;20949;-74
2023/06/16 00:16:09;;;;;;;2.55;1.35;;;21.00;35.30;;;;;;2479466;55;20960;-77
2023/06/16 00:18:43;;;;;;;3.60;1.50;;;21.00;35.40;;;;;;2478873;55;20941;-75
2023/06/16 00:21:13;;;;;;;2.37;1.30;;;20.90;35.50;;;;;;2475446;55;20996;-75
2023/06/16 00:23:40;;;;;;;2.70;1.55;;;20.90;35.50;;;;;;2467327;55;20984;-75
2023/06/16 00:26:06;;;;;;;2.60;1.30;;;20.90;35.60;;;;;;2479139;55;20956;-75
2023/06/16 00:28:33;;;;;;;2.50;1.42;;;20.80;35.50;;;;;;2476876;55;21047;-76
2023/06/16 00:30:59;;;;;;;2.87;1.48;;;20.80;35.60;;;;;;2477534;55;21756;-77
2023/06/16 00:33:26;;;;;;;5.65;1.40;;;20.70;35.70;;;;;;2479103;55;21020;-77
2023/06/16 00:35:53;;;;;;;2.62;1.50;;;20.70;35.80;;;;;;2477258;55;21091;-74
2023/06/16 00:38:20;;;;;;;2.97;1.50;;;20.60;35.90;;;;;;2479119;55;21008;-74
2023/06/16 00:40:46;;;;;;;3.62;1.55;;;20.60;36.10;;;;;;2480425;55;20954;-76
2023/06/16 00:43:13;;;;;;;3.58;1.40;;;20.60;36.20;;;;;;2481330;55;20968;-74
2023/06/16 00:45:39;;;;;;;2.92;1.40;;;20.50;36.10;;;;;;2480390;55;21015;-74
2023/06/16 00:48:05;;;;;;;3.10;1.70;;;20.50;36.20;;;;;;2479411;55;20941;-76
2023/06/16 00:50:32;;;;;;;2.80;1.50;;;20.50;36.30;;;;;;2465669;55;21047;-75
2023/06/16 00:52:58;;;;;;;4.40;1.50;;;20.40;36.20;;;;;;2251525;56;21931;-77
2023/06/16 00:55:25;;;;;;;3.35;1.70;;;20.40;36.30;;;;;;2479907;55;20988;-74
2023/06/16 00:57:52;;;;;;;2.65;1.30;;;20.30;36.30;;;;;;2478400;55;21008;-74
2023/06/16 01:00:21;;;;;;;2.70;1.48;;;20.30;36.30;;;;;;2465135;55;21100;-74
2023/06/16 01:02:49;;;;;;;3.20;1.50;;;20.30;36.40;;;;;;2479316;55;21824;-75
2023/06/16 01:05:17;;;;;;;3.17;1.50;;;20.30;36.50;;;;;;2478792;55;20984;-76
2023/06/16 01:09:21;;;;;;;2.92;1.50;;;20.20;36.50;;;;;;2252081;56;21032;-74
2023/06/16 01:12:13;;;;;;;2.80;1.37;;;20.20;36.90;;;;;;2478291;55;20964;-74
2023/06/16 01:15:23;;;;;;;2.60;1.33;;;20.10;36.50;;;;;;2479156;55;21040;-75
2023/06/16 01:17:50;;;;;;;2.85;1.25;;;20.10;37.00;;;;;;2478627;55;21008;-74
2023/06/16 01:20:51;;;;;;;2.50;1.40;;;20.00;36.60;;;;;;2479184;55;21044;-76
2023/06/16 01:23:25;;;;;;;2.55;1.30;;;20.00;37.00;;;;;;2478398;55;20980;-74
2023/06/16 01:25:55;;;;;;;2.53;1.23;;;19.90;36.80;;;;;;2477756;55;21024;-74
2023/06/16 01:28:25;;;;;;;2.50;1.30;;;19.90;36.80;;;;;;2478867;55;20988;-75
2023/06/16 01:30:52;;;;;;;2.50;1.40;;;19.90;36.90;;;;;;2473705;55;21035;-73
2023/06/16 01:33:20;;;;;;;2.70;1.48;;;19.80;36.90;;;;;;2221226;56;21109;-74
2023/06/16 01:35:50;;;;;;;2.85;1.40;;;19.80;37.00;;;;;;2478850;55;20937;-74
2023/06/16 01:38:16;;;;;;;3.95;1.30;;;19.80;37.20;;;;;;2251431;56;20973;-74
2023/06/16 01:40:44;;;;;;;2.70;1.48;;;19.70;37.10;;;;;;2478996;55;20952;-75
2023/06/16 01:43:10;;;;;;;2.85;1.50;;;19.70;37.20;;;;;;2478958;55;20977;-73
2023/06/16 01:45:37;;;;;;;2.58;1.40;;;19.70;37.20;;;;;;2464518;55;21067;-77
2023/06/16 01:48:03;;;;;;;2.50;1.30;;;19.60;37.20;;;;;;2477181;55;20957;-75
2023/06/16 01:50:30;;;;;;;3.08;1.80;;;19.60;37.30;;;;;;2478806;55;21016;-76
2023/06/16 01:52:56;;;;;;;3.00;1.58;;;19.60;37.40;;;;;;2251632;56;20948;-73
2023/06/16 01:55:24;;;;;;;2.83;1.65;;;19.60;37.50;;;;;;2479294;55;21018;-74
2023/06/16 01:57:53;;;;;;;3.60;1.40;;;19.50;37.60;;;;;;2251644;56;21816;-77
2023/06/16 02:00:36;;;;;;;3.50;1.60;;;19.50;37.60;;;;;;2478158;55;21646;-73
2023/06/16 02:03:06;;;;;;;2.83;1.55;;;19.50;37.90;;;;;;2478768;55;21060;-75
2023/06/16 02:05:33;;;;;;;2.80;1.50;;;19.50;37.80;;;;;;2478844;55;20937;-76
2023/06/16 02:08:00;;;;;;;2.80;1.50;;;19.50;37.90;;;;;;2478438;55;20925;-74
2023/06/16 02:10:30;;;;;;;2.72;1.50;;;19.50;38.00;;;;;;2467019;55;21026;-73
2023/06/16 02:12:56;;;;;;;3.22;1.83;;;19.40;38.00;;;;;;2476071;55;20961;-73
2023/06/16 02:15:24;;;;;;;3.12;1.70;;;19.50;38.00;;;;;;2478736;55;20929;-77
2023/06/16 02:17:51;;;;;;;3.42;1.90;;;19.40;38.00;;;;;;2478594;55;21025;-74
2023/06/16 02:20:20;;;;;;;2.97;1.60;;;19.30;38.20;;;;;;2252678;56;20937;-74
2023/06/16 02:22:47;;;;;;;2.80;1.52;;;19.30;38.30;;;;;;2478519;55;20965;-73
2023/06/16 02:25:13;;;;;;;2.87;1.50;;;19.30;38.30;;;;;;2478520;55;21083;-78
2023/06/16 02:27:40;;;;;;;2.53;1.45;;;19.30;38.40;;;;;;2477571;55;20960;-74
2023/06/16 02:30:08;;;;;;;2.75;1.30;;;19.30;38.50;;;;;;2468127;55;21079;-74
2023/06/16 02:32:36;;;;;;;2.37;1.33;;;19.30;38.50;;;;;;2473356;55;21028;-74
2023/06/16 02:35:07;;;;;;;3.25;1.30;;;19.30;38.60;;;;;;2478494;55;20957;-74
2023/06/16 02:37:36;;;;;;;3.10;1.60;;;19.30;38.70;;;;;;2478539;55;20988;-73
2023/06/16 02:40:04;;;;;;;2.87;1.60;;;19.20;38.50;;;;;;2478361;55;20981;-75
2023/06/16 02:42:32;;;;;;;2.92;1.60;;;19.10;38.50;;;;;;2478621;55;21012;-75
2023/06/16 02:44:59;;;;;;;2.42;1.20;;;19.10;38.50;;;;;;2252614;56;20961;-76
2023/06/16 02:47:25;;;;;;;2.67;1.40;;;19.10;38.60;;;;;;2479298;55;21000;-76
2023/06/16 02:49:52;;;;;;;2.62;1.45;;;19.10;38.60;;;;;;2478234;55;21807;-76
2023/06/16 02:52:22;;;;;;;2.83;1.65;;;19.00;38.60;;;;;;2478868;55;20941;-75
2023/06/16 02:54:48;;;;;;;3.00;1.60;;;19.00;38.70;;;;;;2438802;56;21008;-74
2023/06/16 02:57:14;;;;;;;3.95;1.60;;;19.00;38.70;;;;;;2478925;55;21132;-74
2023/06/16 02:59:41;;;;;;;3.22;1.52;;;18.90;38.70;;;;;;2472041;55;20950;-74
2023/06/16 03:02:07;;;;;;;3.78;1.60;;;18.90;38.70;;;;;;2461567;55;20951;-74
2023/06/16 03:04:34;;;;;;;2.90;1.50;;;18.90;38.80;;;;;;2477366;55;21409;-77
2023/06/16 03:07:02;;;;;;;2.70;1.48;;;18.90;38.90;;;;;;2478824;55;21004;-74
2023/06/16 03:09:29;;;;;;;3.12;1.55;;;18.80;38.90;;;;;;2479280;55;20925;-74
2023/06/16 03:12:05;;;;;;;4.03;1.55;;;18.80;39.00;;;;;;2252452;56;20933;-74
2023/06/16 03:14:32;;;;;;;2.70;1.50;;;18.70;39.30;;;;;;2478798;55;20977;-81
2023/06/16 03:17:00;;;;;;;3.33;1.70;;;18.70;39.00;;;;;;2252130;56;20956;-74
2023/06/16 03:19:27;;;;;;;2.80;1.48;;;18.60;39.00;;;;;;2479254;55;21028;-74
2023/06/16 03:21:54;;;;;;;3.40;1.48;;;18.60;39.10;;;;;;2462819;55;21083;-74
2023/06/16 03:24:21;;;;;;;2.95;1.60;;;18.60;39.10;;;;;;2479440;55;20996;-73
2023/06/16 03:26:47;;;;;;;3.03;1.50;;;18.50;39.10;;;;;;2479580;55;20933;-77
2023/06/16 03:29:14;;;;;;;4.65;1.60;;;18.50;39.20;;;;;;2477001;55;21886;-77
2023/06/16 03:31:41;;;;;;;4.00;1.55;;;18.50;39.30;;;;;;2479051;55;21049;-77
2023/06/16 03:34:08;;;;;;;2.90;1.62;;;18.40;39.20;;;;;;2252657;56;20944;-76
2023/06/16 03:36:41;;;;;;;3.17;1.87;;;18.40;39.40;;;;;;2479006;55;20981;-76
2023/06/16 03:39:07;;;;;;;3.45;1.67;;;18.30;39.50;;;;;;2478979;55;20985;-77
2023/06/16 03:41:33;;;;;;;3.45;1.80;;;18.30;39.60;;;;;;2479113;55;20976;-77
2023/06/16 03:44:00;;;;;;;3.25;1.60;;;18.30;39.70;;;;;;2252359;56;21378;-74
2023/06/16 03:46:28;;;;;;;2.78;1.45;;;18.20;39.70;;;;;;2252373;56;20973;-74
2023/06/16 03:48:55;;;;;;;2.80;1.60;;;18.20;39.80;;;;;;2474999;55;21633;-76
2023/06/16 03:51:25;;;;;;;3.03;1.58;;;18.20;39.90;;;;;;2468003;55;21080;-77
2023/06/16 03:53:52;;;;;;;3.10;1.80;;;18.20;39.90;;;;;;2476743;55;21397;-78
2023/06/16 03:56:19;;;;;;;2.62;1.37;;;18.10;40.00;;;;;;2479159;55;21100;-77
2023/06/16 03:58:48;;;;;;;2.90;1.60;;;18.10;40.10;;;;;;2478237;55;21472;-77
2023/06/16 04:01:15;;;;;;;3.10;1.85;;;18.10;40.20;;;;;;2478745;55;20945;-77
2023/06/16 04:03:43;;;;;;;3.50;1.55;;;18.10;40.80;;;;;;2465747;55;20986;-77
2023/06/16 04:06:11;;;;;;;3.33;2.20;;;18.00;40.20;;;;;;2476917;55;20980;-77
2023/06/16 04:08:37;;;;;;;3.20;1.73;;;18.00;40.30;;;;;;2478796;55;21364;-77
2023/06/16 04:11:04;;;;;;;3.17;1.35;;;18.10;40.40;;;;;;2478357;55;20940;-80
2023/06/16 04:13:31;;;;;;;2.83;1.40;;;18.00;40.40;;;;;;2251368;56;20928;-77
2023/06/16 04:15:57;;;;;;;2.65;1.55;;;18.00;40.40;;;;;;2478118;55;20984;-77
2023/06/16 04:18:23;;;;;;;3.15;1.95;;;18.00;40.50;;;;;;2478303;55;21038;-79
2023/06/16 04:20:50;;;;;;;3.50;2.03;;;18.00;40.60;;;;;;2478658;55;21051;-77
2023/06/16 04:23:17;;;;;;;3.97;1.62;;;18.00;40.60;;;;;;2477497;55;21116;-78
2023/06/16 04:25:43;;;;;;;3.95;1.58;;;18.00;40.70;;;;;;2478005;55;20962;-77
2023/06/16 04:28:16;;;;;;;3.47;1.73;;;18.00;40.80;;;;;;2478204;55;21413;-78
2023/06/16 04:30:43;;;;;;;3.50;1.80;;;17.90;40.70;;;;;;2478248;55;21759;-77
2023/06/16 04:33:13;;;;;;;3.35;1.50;;;17.90;40.80;;;;;;2251728;56;20933;-77
2023/06/16 04:35:40;;;;;;;3.17;1.70;;;18.10;41.10;;;;;;2478226;55;21020;-77
2023/06/16 04:38:11;;;;;;;3.42;1.58;;;17.90;41.00;;;;;;2478981;55;20943;-78
2023/06/16 04:40:41;;;;;;;2.25;1.27;;;17.90;41.10;;;;;;2478257;55;20981;-77
2023/06/16 04:43:08;;;;;;;2.75;1.50;;;17.90;41.20;;;;;;2478297;55;20945;-78
2023/06/16 04:45:35;;;;;;;3.47;1.90;;;18.00;41.30;;;;;;2478954;55;21337;-77
2023/06/16 04:48:06;;;;;;;3.67;1.75;;;18.00;41.40;;;;;;2474384;55;20983;-81
2023/06/16 04:50:33;;;;;;;2.78;1.50;;;18.00;41.50;;;;;;2242204;56;21067;-77
2023/06/16 04:53:00;;;;;;;2.78;1.58;;;18.00;41.50;;;;;;2467710;55;21048;-76
2023/06/16 04:55:29;;;;;;;2.70;1.62;;;18.00;41.50;;;;;;2478522;55;21342;-78
2023/06/16 04:57:56;;;;;;;4.10;1.70;;;18.00;41.60;;;;;;2477895;55;20965;-77
2023/06/16 05:00:27;;;;;;;2.80;1.58;;;18.00;41.60;;;;;;2479193;55;21036;-77
2023/06/16 05:02:54;;;;;;;3.50;1.90;;;18.10;41.80;;;;;;2440133;56;21906;-78
2023/06/16 05:05:23;;;;;;;3.90;2.17;;;18.10;41.90;;;;;;2476197;55;21006;-77
2023/06/16 05:07:49;;;;;;;2.67;1.48;;;18.10;41.90;;;;;;2466248;55;21052;-78
2023/06/16 05:10:17;;;;;;;2.80;1.62;;;18.20;42.10;;;;;;2478838;55;21068;-77
2023/06/16 05:12:44;;;;;;;2.95;1.83;;;18.20;42.10;;;;;;2477710;55;20973;-80
2023/06/16 05:15:11;;;;;;;3.15;1.70;;;18.30;42.20;;;;;;2477654;55;20964;-76
2023/06/16 05:17:38;;;;;;;2.95;1.92;;;18.30;42.10;;;;;;2478134;55;21024;-77
2023/06/16 05:20:06;;;;;;;4.12;2.17;;;18.30;42.20;;;;;;2478316;55;20949;-77
2023/06/16 05:22:39;;;;;;;3.35;1.92;;;18.40;42.30;;;;;;2478245;55;21045;-77
2023/06/16 05:25:07;;;;;;;3.45;1.90;;;18.40;42.30;;;;;;2251542;56;21433;-78
2023/06/16 05:27:34;;;;;;;3.42;1.60;;;18.50;42.40;;;;;;2245371;56;21446;-78
2023/06/16 05:30:04;;;;;;;4.32;2.30;;;18.50;42.40;;;;;;2473775;55;21585;-78
2023/06/16 05:32:31;;;;;;;4.00;2.00;;;18.60;42.60;;;;;;2459120;55;20954;-74
2023/06/16 05:34:57;;;;;;;3.00;1.73;;;18.60;42.60;;;;;;2244513;56;21064;-77
2023/06/16 05:37:24;;;;;;;3.80;2.10;;;18.60;42.60;;;;;;2252364;56;21152;-74
2023/06/16 05:39:50;;;;;;;3.42;2.20;;;18.80;42.80;;;;;;2475397;55;21159;-75
2023/06/16 05:42:19;;;;;;;3.65;2.20;;;18.90;42.90;;;;;;2241036;56;21116;-75
2023/06/16 05:44:45;;;;;;;5.78;2.45;;;18.90;42.80;;;;;;2477526;55;20988;-76
2023/06/16 05:47:12;;;;;;;3.35;2.08;;;18.90;42.90;;;;;;2473081;55;21002;-74
2023/06/16 05:49:42;;;;;;;3.72;1.98;;;19.00;42.90;;;;;;2467980;55;21076;-74
2023/06/16 05:52:10;;;;;;;3.15;1.77;;;19.10;43.80;;;;;;2477489;55;20964;-72
2023/06/16 05:54:36;;;;;;;3.45;2.28;;;19.20;43.10;;;;;;2478619;55;20960;-75
2023/06/16 05:57:03;;;;;;;3.62;2.22;;;19.20;43.00;;;;;;2478067;55;20993;-77
2023/06/16 05:59:29;;;;;;;4.15;2.25;;;19.30;43.10;;;;;;2478005;55;20960;-74
2023/06/16 06:01:56;;;;;;;3.53;2.12;;;19.40;43.40;;;;;;2477609;55;20929;-77
2023/06/16 06:04:30;;;;;;;3.70;2.15;;;19.50;43.50;;;;;;2462732;55;21032;-76
2023/06/16 06:06:56;;;;;;;3.47;2.20;;;19.60;43.80;;;;;;2478406;55;21068;-74
2023/06/16 06:09:23;;;;;;;3.60;2.17;;;19.70;43.60;;;;;;2465087;55;20944;-74
2023/06/16 06:11:50;;;;;;;4.72;2.05;;;19.70;43.60;;;;;;2477015;55;20945;-75
2023/06/16 06:14:17;;;;;;;3.55;2.30;;;19.80;43.60;;;;;;2477281;55;20937;-76
2023/06/16 06:16:44;;;;;;;3.90;2.50;;;19.90;43.50;;;;;;2478029;55;21020;-74
2023/06/16 06:19:11;;;;;;;3.78;2.15;;;19.90;43.50;;;;;;2478106;55;21060;-76
2023/06/16 06:21:40;;;;;;;4.37;2.83;;;20.00;43.60;;;;;;2469878;55;20966;-76
2023/06/16 06:24:06;;;;;;;6.25;3.10;;;20.10;43.60;;;;;;2242184;56;20988;-73
2023/06/16 06:26:33;;;;;;;4.68;2.85;;;20.20;43.90;;;;;;2473504;55;21013;-75
2023/06/16 06:28:59;;;;;;;4.53;2.80;;;20.20;44.00;;;;;;2478489;55;21033;-73
2023/06/16 06:31:26;;;;;;;4.22;2.67;;;20.30;44.00;;;;;;2477923;55;20941;-75
2023/06/16 06:33:52;;;;;;;4.32;2.80;;;20.40;43.80;;;;;;2477529;55;20944;-75
2023/06/16 06:36:28;;;;;;;6.65;3.35;;;20.50;43.80;;;;;;2478322;55;21029;-74
2023/06/16 06:38:55;;;;;;;3.80;2.50;;;20.50;43.90;;;;;;2477742;55;21000;-78
2023/06/16 06:41:26;;;;;;;5.53;2.35;;;20.60;44.00;;;;;;2469120;55;21205;-74
2023/06/16 06:43:53;;;;;;;3.20;1.92;;;20.70;44.10;;;;;;2471226;55;20960;-74
2023/06/16 06:46:19;;;;;;;3.20;2.08;;;20.80;44.00;;;;;;2477543;55;20956;-75
2023/06/16 06:48:46;;;;;;;5.53;3.00;;;20.90;44.00;;;;;;2251036;56;20965;-77
2023/06/16 06:51:13;;;;;;;3.45;2.37;;;21.00;44.00;;;;;;2478131;55;20956;-74
2023/06/16 06:53:40;;;;;;;3.30;1.98;;;21.00;44.00;;;;;;2251468;56;21061;-75
2023/06/16 06:56:06;;;;;;;4.05;2.33;;;21.10;44.00;;;;;;2478519;55;20953;-74
2023/06/16 06:58:33;;;;;;;4.35;2.53;;;21.20;43.90;;;;;;2472263;55;20994;-75
2023/06/16 07:01:02;;;;;;;5.40;2.80;;;21.30;44.00;;;;;;2466911;55;20929;-73
2023/06/16 07:03:29;;;;;;;4.15;2.70;;;21.40;44.20;;;;;;2252471;56;20952;-77
2023/06/16 07:05:55;;;;;;;4.28;2.55;;;21.50;44.20;;;;;;2478108;55;20949;-74
2023/06/16 07:08:25;;;;;;;3.72;2.53;;;21.60;44.20;;;;;;2251668;56;20956;-77
2023/06/16 07:10:51;;;;;;;3.92;2.55;;;21.70;44.50;;;;;;2471315;55;21039;-74
2023/06/16 07:13:17;;;;;;;3.45;2.15;;;21.80;44.40;;;;;;2466416;55;20976;-75
2023/06/16 07:15:45;;;;;;;3.25;1.92;;;21.90;44.30;;;;;;2478336;55;21016;-74
2023/06/16 07:18:12;;;;;;;4.65;2.47;;;22.00;44.30;;;;;;2478394;55;20945;-74
2023/06/16 07:20:38;;;;;;;5.05;2.75;;;22.00;44.40;;;;;;2478013;55;21032;-73
2023/06/16 07:23:06;;;;;;;3.85;2.65;;;22.20;44.40;;;;;;2477620;55;21449;-77
2023/06/16 07:25:36;;;;;;;3.80;2.80;;;22.30;44.40;;;;;;2465983;55;21014;-78
2023/06/16 07:28:04;;;;;;;5.28;3.42;;;22.30;44.30;;;;;;2446489;55;21054;-75
2023/06/16 07:30:31;;;;;;;5.43;2.67;;;22.40;44.40;;;;;;2466638;55;21037;-76
2023/06/16 07:32:58;;;;;;;4.10;2.62;;;22.50;44.30;;;;;;2478194;55;20992;-77
2023/06/16 07:35:27;;;;;;;4.70;3.05;;;22.60;44.30;;;;;;2477831;55;20937;-75
2023/06/16 07:37:53;;;;;;;4.15;2.92;;;22.70;44.40;;;;;;2477729;55;21455;-76
2023/06/16 07:40:20;;;;;;;3.90;2.60;;;22.80;44.50;;;;;;2468562;55;20958;-77
2023/06/16 07:42:51;;;;;;;4.35;2.87;;;22.90;44.40;;;;;;2223760;57;20958;-76
2023/06/16 07:45:17;;;;;;;4.05;2.55;;;23.00;44.40;;;;;;2476414;55;21005;-77
2023/06/16 07:47:45;;;;;;;4.43;2.70;;;23.10;44.30;;;;;;2249159;56;21002;-75
2023/06/16 07:50:13;;;;;;;4.62;2.87;;;23.20;44.30;;;;;;2442269;55;21561;-75
2023/06/16 07:52:41;;;;;;;4.60;2.75;;;23.30;44.20;;;;;;2454111;55;21795;-75
2023/06/16 07:55:09;;;;;;;3.83;2.60;;;23.40;44.20;;;;;;2460012;55;20997;-75
2023/06/16 07:57:39;;;;;;;3.77;2.30;;;23.50;44.20;;;;;;2478055;55;20968;-74
2023/06/16 08:00:10;;;;;;;4.43;2.80;;;23.60;44.00;;;;;;2474351;55;21671;-72
2023/06/16 08:02:39;;;;;;;5.28;2.37;;;23.70;43.80;;;;;;2473650;55;20941;-73
2023/06/16 08:05:07;;;;;;;3.60;2.22;;;23.80;43.70;;;;;;2242761;56;21052;-72
2023/06/16 08:07:35;;;;;;;3.28;2.10;;;23.90;43.60;;;;;;2463452;55;21851;-74
2023/06/16 08:10:06;;;;;;;4.07;2.10;;;23.90;43.30;;;;;;2251692;56;21072;-74
2023/06/16 08:12:33;;;;;;;5.35;2.50;;;24.10;43.30;;;;;;2251396;56;20982;-73
2023/06/16 08:15:02;;;;;;;3.85;2.40;;;24.20;43.20;;;;;;2474406;55;21035;-73
2023/06/16 08:17:29;;;;;;;5.12;1.95;;;24.20;42.90;;;;;;2457913;55;20998;-74
2023/06/16 08:19:55;;;;;;;3.80;2.45;;;24.40;42.70;;;;;;2476632;55;20968;-74
2023/06/16 08:22:22;;;;;;;3.50;2.22;;;24.50;42.50;;;;;;2477819;55;21000;-73
2023/06/16 08:24:48;;;;;;;3.83;2.30;;;24.60;42.40;;;;;;2477744;55;21028;-74
2023/06/16 08:27:15;;;;;;;3.75;2.08;;;24.70;42.10;;;;;;2478021;55;21021;-74
2023/06/16 08:29:42;;;;;;;3.28;2.10;;;24.80;42.00;;;;;;2247304;56;20967;-73
2023/06/16 08:32:10;;;;;;;3.33;2.08;;;24.80;41.90;;;;;;2470943;55;20929;-74
2023/06/16 08:34:37;;;;;;;4.32;2.45;;;25.00;41.90;;;;;;2477650;55;20948;-73
2023/06/16 08:37:05;;;;;;;3.85;2.50;;;25.00;41.60;;;;;;2466267;55;21046;-73
2023/06/16 08:39:36;;;;;;;3.70;2.30;;;25.10;41.60;;;;;;2461591;55;21122;-73
2023/06/16 08:42:04;;;;;;;3.30;2.30;;;25.20;41.50;;;;;;2245834;56;21005;-74
2023/06/16 08:44:31;;;;;;;3.45;2.20;;;25.30;41.40;;;;;;2251491;56;20944;-74
2023/06/16 08:46:57;;;;;;;4.37;2.60;;;25.40;41.20;;;;;;2478551;55;20953;-73
2023/06/16 08:49:24;;;;;;;4.28;2.20;;;25.50;41.00;;;;;;2251677;56;21469;-74
2023/06/16 08:51:51;;;;;;;4.50;2.70;;;25.50;41.40;;;;;;2478209;55;20979;-74
2023/06/16 08:54:18;;;;;;;3.55;2.28;;;25.60;40.70;;;;;;2462640;55;20967;-71
2023/06/16 08:56:45;;;;;;;4.22;2.42;;;25.70;40.60;;;;;;2472029;55;20952;-73
2023/06/16 08:59:12;;;;;;;4.35;2.35;;;25.80;40.50;;;;;;2251097;56;20956;-73
2023/06/16 09:01:42;;;;;;;3.58;2.20;;;25.90;40.40;;;;;;2466501;55;21028;-74
2023/06/16 09:04:08;;;;;;;3.42;2.12;;;26.00;40.40;;;;;;2250919;56;21060;-72
2023/06/16 09:06:44;;;;;;;4.62;2.45;;;26.00;40.40;;;;;;2252887;56;21012;-72
2023/06/16 09:09:10;;;;;;;3.78;2.30;;;26.10;40.20;;;;;;2252240;56;21020;-73
2023/06/16 09:11:38;;;;;;;4.12;2.50;;;26.20;40.30;;;;;;2475406;55;20993;-72
2023/06/16 09:14:11;;;;;;;5.65;2.25;;;26.30;40.20;;;;;;2479240;55;20916;-73
2023/06/16 09:16:39;;;;;;;3.70;2.03;;;26.30;39.80;;;;;;2479753;55;21053;-74
2023/06/16 09:19:07;;;;;;;3.35;2.12;;;26.40;39.60;;;;;;2480200;55;20952;-74
2023/06/16 09:21:35;;;;;;;2.97;1.92;;;26.50;39.40;;;;;;2477305;55;21098;-73
2023/06/16 09:24:03;;;;;;;3.22;2.22;;;26.60;39.30;;;;;;2242273;57;21025;-74
2023/06/16 09:26:35;;;;;;;3.58;2.08;;;26.60;39.00;;;;;;2479155;55;20945;-73
2023/06/16 09:29:19;;;;;;;2.92;1.80;;;26.70;39.50;;;;;;2479297;55;21040;-74
2023/06/16 09:31:47;;;;;;;2.95;1.77;;;26.80;38.90;;;;;;2252159;56;21057;-74
2023/06/16 09:34:13;;;;;;;2.72;1.75;;;26.80;38.70;;;;;;2478784;55;20963;-73
2023/06/16 09:36:42;;;;;;;3.30;1.80;;;26.90;38.60;;;;;;2477110;55;21044;-73
2023/06/16 09:39:24;;;;;;;4.05;2.45;;;27.00;38.60;;;;;;2252236;56;21032;-74
2023/06/16 09:41:51;;;;;;;2.95;1.83;;;27.10;38.90;;;;;;2478339;55;21067;-74
2023/06/16 09:44:39;;;;;;;3.28;1.83;;;27.10;38.80;;;;;;2478387;55;20993;-73
2023/06/16 09:47:06;;;;;;;4.53;1.83;;;27.10;38.40;;;;;;2252528;56;20957;-75
2023/06/16 09:49:35;;;;;;;3.53;1.80;;;27.20;38.10;;;;;;2478740;55;20996;-72
2023/06/16 09:52:02;;;;;;;2.55;1.65;;;27.30;37.80;;;;;;2478980;55;21109;-74
2023/06/16 09:54:28;;;;;;;3.67;1.85;;;27.40;37.70;;;;;;2472966;55;21059;-74
2023/06/16 09:56:55;;;;;;;3.97;2.10;;;27.40;37.60;;;;;;2465511;55;21472;-74
2023/06/16 09:59:27;;;;;;;3.33;2.08;;;27.50;37.30;;;;;;2478359;55;20981;-73
2023/06/16 10:01:54;;;;;;;5.15;2.12;;;27.50;37.20;;;;;;2477745;55;21032;-73
2023/06/16 10:04:21;;;;;;;3.60;1.95;;;27.60;37.10;;;;;;2478611;55;21036;-74
2023/06/16 10:07:02;;;;;;;3.78;2.20;;;27.70;37.00;;;;;;2478242;55;21144;-73
2023/06/16 10:09:38;;;;;;;3.22;1.75;;;27.70;36.30;;;;;;2251552;56;21664;-74
2023/06/16 10:12:08;;;;;;;3.20;1.80;;;27.80;36.60;;;;;;2254110;56;21106;-73
2023/06/16 10:14:35;;;;;;;3.10;1.70;;;27.90;36.30;;;;;;2465542;55;21052;-74
2023/06/16 10:17:04;;;;;;;4.18;1.55;;;27.90;36.10;;;;;;2252305;56;20952;-74
2023/06/16 10:19:30;;;;;;;3.45;1.95;;;28.00;36.10;;;;;;2477982;55;21004;-73
2023/06/16 10:21:58;;;;;;;3.08;1.80;;;28.00;35.90;;;;;;2478247;55;20997;-72
2023/06/16 10:24:27;;;;;;;2.90;1.75;;;28.10;36.10;;;;;;2242004;56;21038;-74
2023/06/16 10:26:53;;;;;;;3.00;1.70;;;28.20;35.90;;;;;;2477631;55;20956;-72
2023/06/16 10:29:20;;;;;;;3.05;1.80;;;28.20;35.60;;;;;;2478935;55;21100;-73
2023/06/16 10:31:49;;;;;;;4.18;2.00;;;28.30;35.40;;;;;;2463259;55;20949;-73
2023/06/16 10:34:19;;;;;;;3.83;1.70;;;28.40;35.30;;;;;;2478523;55;20992;-73
2023/06/16 10:36:48;;;;;;;2.80;1.62;;;28.50;34.90;;;;;;2478675;55;21744;-73
2023/06/16 10:39:17;;;;;;;2.70;1.50;;;28.50;34.80;;;;;;2478900;55;21016;-71
2023/06/16 10:41:57;;;;;;;3.03;1.80;;;28.60;34.60;;;;;;2478402;55;20972;-74
2023/06/16 10:44:28;;;;;;;3.30;1.67;;;28.60;33.90;;;;;;2252188;56;20961;-74
2023/06/16 10:49:33;;;;;;;;;;;28.70;34.20;;;;;;2481679;55;20948;-73
2023/06/16 10:52:04;;;;;;;3.67;1.62;;;28.80;34.20;;;;;;2252484;56;20209;-73
2023/06/16 10:54:44;;;;;;;3.20;1.67;;;28.90;34.40;;;;;;2478258;55;20977;-73
2023/06/16 10:57:12;;;;;;;3.42;1.80;;;28.90;33.70;;;;;;2237560;55;20978;-73
2023/06/16 11:00:10;;;;;;;3.17;1.37;;;29.00;34.20;;;;;;2457749;55;20957;-74
2023/06/16 11:03:11;;;;;;;4.00;1.75;;;29.00;34.00;;;;;;2477460;55;21368;-74
2023/06/16 11:05:40;;;;;;;4.10;1.98;;;29.00;33.60;;;;;;2478081;55;20924;-73
2023/06/16 11:08:13;;;;;;;3.33;2.05;;;29.10;33.10;;;;;;2241699;56;21022;-73
2023/06/16 11:10:54;;;;;;;4.85;2.00;;;29.20;32.40;;;;;;2463631;55;21006;-74
2023/06/16 11:13:29;;;;;;;4.03;1.85;;;29.20;31.90;;;;;;2478352;55;21009;-73
2023/06/16 11:15:56;;;;;;;3.87;1.75;;;29.20;31.90;;;;;;2252275;56;20977;-74
2023/06/16 11:18:24;;;;;;;3.35;2.00;;;29.30;32.00;;;;;;2478506;55;20969;-74
2023/06/16 11:21:16;;;;;;;4.53;2.37;;;29.30;32.00;;;;;;2477774;55;21040;-74
2023/06/16 11:23:45;;;;;;;3.53;1.92;;;29.40;31.70;;;;;;2251731;56;20957;-74
2023/06/16 11:26:15;;;;;;;3.12;1.65;;;29.40;31.60;;;;;;2467865;55;21502;-74
2023/06/16 11:28:42;;;;;;;3.60;1.80;;;29.40;31.50;;;;;;2221629;56;21478;-74
2023/06/16 11:31:12;;;;;;;3.40;1.87;;;29.50;31.50;;;;;;2250507;56;20941;-73
2023/06/16 11:33:39;;;;;;;3.40;1.80;;;29.50;31.60;;;;;;2477723;55;21024;-74
2023/06/16 11:36:18;;;;;;;3.05;1.83;;;29.60;31.50;;;;;;2252727;56;20985;-74
2023/06/16 11:38:46;;;;;;;3.75;2.08;;;29.70;30.80;;;;;;2466794;55;21577;-73
2023/06/16 11:41:28;;;;;;;3.15;1.85;;;29.70;30.90;;;;;;2245330;56;21873;-75
2023/06/16 11:43:54;;;;;;;;;;;29.70;30.70;;;;;;2249870;56;21092;-73
2023/06/16 11:46:26;;;;;;;4.68;1.95;;;29.80;30.90;;;;;;2478112;55;20077;-74
2023/06/16 11:48:54;;;;;;;3.70;1.95;;;29.80;30.90;;;;;;2250597;56;21739;-74
2023/06/16 11:51:21;;;;;;;3.42;2.00;;;29.90;30.60;;;;;;2477759;55;20961;-74
2023/06/16 11:53:47;;;;;;;3.70;2.10;;;29.90;30.30;;;;;;2445938;55;20982;-74
2023/06/16 11:56:14;;;;;;;4.07;2.30;;;29.90;30.40;;;;;;2464772;55;21035;-74
2023/06/16 11:58:44;;;;;;;3.47;2.17;;;30.00;30.80;;;;;;2464063;55;20996;-74
2023/06/16 12:01:14;;;;;;;3.90;2.03;;;30.00;31.00;;;;;;2478184;55;21017;-75
2023/06/16 12:03:42;;;;;;;3.35;2.08;;;30.10;30.50;;;;;;2474476;55;21074;-75
2023/06/16 12:06:14;;;;;;;4.97;2.33;;;30.10;30.30;;;;;;2243501;57;21126;-74
2023/06/16 12:08:48;;;;;;;4.25;2.12;;;30.20;30.00;;;;;;2240889;56;21393;-75
2023/06/16 12:11:23;;;;;;;3.35;2.10;;;30.30;29.80;;;;;;2251980;56;21011;-75
2023/06/16 12:13:51;;;;;;;4.32;2.03;;;30.30;29.90;;;;;;2466209;55;20959;-74
2023/06/16 12:16:20;;;;;;;6.55;2.12;;;30.30;29.60;;;;;;2248359;56;21062;-72
2023/06/16 12:18:51;;;;;;;5.72;1.87;;;30.40;29.10;;;;;;2477531;55;20972;-74
2023/06/16 12:21:24;;;;;;;4.50;1.50;;;30.40;28.80;;;;;;2477798;55;20996;-75
2023/06/16 12:23:57;;;;;;;2.83;1.73;;;30.40;28.90;;;;;;2477669;55;20933;-73
2023/06/16 12:26:35;;;;;;;3.45;2.00;;;30.50;29.00;;;;;;2477740;55;20954;-74
2023/06/16 12:29:11;;;;;;;4.28;1.92;;;30.50;28.40;;;;;;2478187;55;21051;-75
2023/06/16 12:31:55;;;;;;;5.18;2.00;;;30.60;28.30;;;;;;2461940;55;21056;-74
2023/06/16 12:34:34;;;;;;;3.60;2.00;;;30.60;28.20;;;;;;2477614;55;21814;-75
2023/06/16 12:37:06;;;;;;;4.53;2.05;;;30.60;28.10;;;;;;2245023;56;21029;-74
2023/06/16 12:39:33;;;;;;;3.15;1.67;;;30.60;28.40;;;;;;2475721;55;21031;-75
2023/06/16 12:42:00;;;;;;;3.20;1.95;;;30.60;28.30;;;;;;2478131;55;21875;-74
2023/06/16 12:44:49;;;;;;;3.62;1.77;;;30.60;28.10;;;;;;2251779;56;20957;-74
2023/06/16 12:47:20;;;;;;;3.97;2.08;;;30.70;27.80;;;;;;2251541;56;21091;-74
2023/06/16 12:49:47;;;;;;;4.03;1.67;;;30.70;27.80;;;;;;2466936;55;21081;-73
2023/06/16 12:52:13;;;;;;;4.70;2.20;;;30.70;28.00;;;;;;2248221;56;20945;-73
2023/06/16 12:54:40;;;;;;;2.78;1.50;;;30.70;27.90;;;;;;2476912;55;20941;-73
2023/06/16 12:57:07;;;;;;;3.85;1.90;;;30.70;27.90;;;;;;2477025;55;21860;-73
2023/06/16 12:59:36;;;;;;;3.20;1.62;;;30.80;28.00;;;;;;2476647;55;20985;-73
2023/06/16 13:02:02;;;;;;;3.95;2.08;;;30.80;28.00;;;;;;2477969;55;21452;-75